Time;durP1;ratioP1;P1;durP2;ratioP2;P2;SDS_P1;SDS_P2;PMS_P1;PMS_P2;Temp;Humidity;BMP_temperature;BMP_pressure;BME280_temperature;BME280_humidity;BME280_pressure;Samples;Min_cycle;Max_cycle;Signal;HPM_P1;HPM_P2
2023/05/26 00:00:14;;;;;;;8.95;4.55;;;;;;;12.23;100.00;96363.13;1026296;28;20034;-72
2023/05/26 00:00:44;;;;;;;9.60;5.28;;;;;;;12.20;100.00;96361.00;1026902;28;20077;-73
2023/05/26 00:01:15;;;;;;;9.30;4.82;;;;;;;12.21;100.00;96365.22;1029842;28;20033;-72
2023/05/26 00:01:46;;;;;;;8.80;4.85;;;;;;;12.22;100.00;96364.97;1030406;28;20018;-73
2023/05/26 00:02:19;;;;;;;7.40;4.72;;;;;;;12.24;100.00;96362.09;1034572;28;20479;-72
2023/05/26 00:02:50;;;;;;;7.50;4.45;;;;;;;12.26;100.00;96359.97;1030299;28;20344;-72
2023/05/26 00:03:20;;;;;;;8.75;4.60;;;;;;;12.24;100.00;96360.25;1030660;28;20105;-73
2023/05/26 00:03:51;;;;;;;11.40;6.20;;;;;;;12.23;100.00;96363.13;1030151;28;20030;-72
2023/05/26 00:04:24;;;;;;;11.57;5.15;;;;;;;12.21;100.00;96360.75;1030548;28;20038;-73
2023/05/26 00:04:58;;;;;;;17.63;5.97;;;;;;;12.19;100.00;96362.84;1034132;28;20562;-72
2023/05/26 00:05:28;;;;;;;8.75;5.30;;;;;;;12.12;100.00;96357.03;1030030;28;20027;-72
2023/05/26 00:05:59;;;;;;;10.27;4.80;;;;;;;12.15;100.00;96361.00;1034564;28;20592;-73
2023/05/26 00:06:31;;;;;;;10.68;5.20;;;;;;;12.12;100.00;96358.88;1034472;28;20025;-73
2023/05/26 00:07:01;;;;;;;10.57;5.47;;;;;;;12.12;100.00;96364.91;1036346;28;20030;-73
2023/05/26 00:07:31;;;;;;;10.18;4.93;;;;;;;12.05;100.00;96356.47;1037774;28;20538;-72
2023/05/26 00:08:02;;;;;;;9.90;5.28;;;;;;;12.05;100.00;96366.22;1030408;28;20026;-72
2023/05/26 00:08:32;;;;;;;9.38;4.78;;;;;;;12.02;100.00;96362.25;1022133;28;20086;-74
2023/05/26 00:09:03;;;;;;;8.85;4.47;;;;;;;11.98;100.00;96361.97;1022264;29;20039;-72
2023/05/26 00:09:33;;;;;;;8.75;4.75;;;;;;;11.96;100.00;96363.25;1022397;28;20074;-72
2023/05/26 00:10:04;;;;;;;8.63;4.57;;;;;;;11.97;100.00;96359.56;1018550;28;20590;-72
2023/05/26 00:10:35;;;;;;;8.77;5.15;;;;;;;11.93;100.00;96361.13;1029364;28;20424;-73
2023/05/26 00:11:06;;;;;;;10.38;5.05;;;;;;;11.94;100.00;96363.53;1029739;28;20455;-74
2023/05/26 00:11:36;;;;;;;7.90;5.20;;;;;;;11.93;100.00;96369.03;1029973;28;20022;-73
2023/05/26 00:12:07;;;;;;;8.80;5.07;;;;;;;11.92;100.00;96368.25;1034399;28;20030;-72
2023/05/26 00:12:37;;;;;;;8.65;4.88;;;;;;;11.94;100.00;96366.16;1030495;28;20026;-72
2023/05/26 00:13:08;;;;;;;8.95;5.13;;;;;;;11.92;100.00;96370.09;1030455;28;20787;-72
2023/05/26 00:13:39;;;;;;;13.95;5.10;;;;;;;11.85;100.00;96357.16;1029964;28;20049;-72
2023/05/26 00:14:10;;;;;;;10.10;4.88;;;;;;;11.92;100.00;96370.09;1026770;28;20366;-73
2023/05/26 00:14:40;;;;;;;9.45;4.93;;;;;;;11.90;100.00;96369.53;1030488;28;20027;-73
2023/05/26 00:15:11;;;;;;;10.90;5.07;;;;;;;11.86;100.00;96366.63;1030372;28;20030;-72
2023/05/26 00:15:41;;;;;;;8.88;5.43;;;;;;;11.82;100.00;96362.09;1030022;28;20029;-72
2023/05/26 00:16:12;;;;;;;10.52;4.97;;;;;;;11.87;100.00;96368.22;1030387;28;20026;-73
2023/05/26 00:16:43;;;;;;;10.00;5.10;;;;;;;11.87;100.00;96365.59;1030394;28;20030;-71
2023/05/26 00:17:16;;;;;;;11.50;4.93;;;;;;;11.88;100.00;96366.38;1018193;29;20728;-72
2023/05/26 00:17:47;;;;;;;7.80;4.78;;;;;;;11.86;100.00;96364.00;1021100;28;20380;-72
2023/05/26 00:18:19;;;;;;;6.82;4.70;;;;;;;11.81;100.00;96356.06;1027018;28;20030;-73
2023/05/26 00:18:50;;;;;;;7.13;4.82;;;;;;;11.75;100.00;96352.59;1027852;28;20524;-72
2023/05/26 00:19:21;;;;;;;11.43;5.43;;;;;;;11.78;100.00;96367.88;1034201;28;20030;-72
2023/05/26 00:19:52;;;;;;;8.20;4.85;;;;;;;11.78;100.00;96372.34;1030183;28;20026;-72
2023/05/26 00:20:23;;;;;;;11.27;5.03;;;;;;;11.77;100.00;96368.13;1030980;28;20742;-72
2023/05/26 00:20:53;;;;;;;9.82;4.80;;;;;;;11.76;100.00;96374.44;1033910;28;20269;-71
2023/05/26 00:21:24;;;;;;;11.05;5.03;;;;;;;11.77;100.00;96370.78;1033993;28;20033;-72
2023/05/26 00:21:54;;;;;;;11.35;5.68;;;;;;;11.72;100.00;96363.63;1034220;28;20022;-72
2023/05/26 00:22:25;;;;;;;10.40;5.53;;;;;;;11.73;100.00;96369.66;1026394;28;20031;-73
2023/05/26 00:22:55;;;;;;;8.27;4.70;;;;;;;11.70;100.00;96364.91;1028815;28;20077;-72
2023/05/26 00:23:25;;;;;;;10.82;5.22;;;;;;;11.72;100.00;96373.34;1030356;28;20029;-73
2023/05/26 00:23:56;;;;;;;14.63;5.10;;;;;;;11.69;100.00;96369.38;1030361;28;20090;-72
2023/05/26 00:24:26;;;;;;;9.15;5.20;;;;;;;11.69;100.00;96366.75;1032842;28;20351;-73
2023/05/26 00:24:57;;;;;;;14.52;5.70;;;;;;;11.69;100.00;96368.59;1030439;28;20030;-72
2023/05/26 00:25:27;;;;;;;11.60;5.55;;;;;;;11.66;100.00;96369.09;1030366;28;20703;-73
2023/05/26 00:25:58;;;;;;;9.10;5.00;;;;;;;11.62;100.00;96370.66;1030437;28;20030;-72
2023/05/26 00:26:28;;;;;;;7.75;4.90;;;;;;;11.62;100.00;96370.66;1037953;28;20064;-73
2023/05/26 00:26:59;;;;;;;10.18;4.68;;;;;;;11.61;100.00;96371.72;1038603;28;20558;-73
2023/05/26 00:27:29;;;;;;;7.93;5.03;;;;;;;11.59;100.00;96374.59;1038397;28;20434;-73
2023/05/26 00:28:00;;;;;;;8.60;4.80;;;;;;;11.61;100.00;96366.47;1038367;28;20025;-72
2023/05/26 00:28:30;;;;;;;10.88;5.15;;;;;;;11.59;100.00;96366.69;1030264;28;20092;-73
2023/05/26 00:29:00;;;;;;;6.35;4.43;;;;;;;11.51;100.00;96351.41;1026381;28;20060;-72
2023/05/26 00:29:31;;;;;;;8.48;4.68;;;;;;;11.57;100.00;96366.97;1027356;28;20566;-72
2023/05/26 00:30:02;;;;;;;10.77;5.18;;;;;;;11.63;100.00;96364.34;1022427;29;20043;-72
2023/05/26 00:30:33;;;;;;;10.50;5.72;;;;;;;11.66;100.00;96369.91;1029733;28;20037;-72
2023/05/26 00:31:03;;;;;;;7.43;4.57;;;;;;;11.68;100.00;96367.03;1037676;28;20681;-72
2023/05/26 00:31:34;;;;;;;7.13;4.68;;;;;;;11.68;100.00;96372.28;1030082;28;20057;-72
2023/05/26 00:32:04;;;;;;;7.97;4.85;;;;;;;11.64;100.00;96365.94;1030291;28;20341;-72
2023/05/26 00:32:35;;;;;;;9.25;5.32;;;;;;;11.64;100.00;96369.38;1026176;28;20027;-72
2023/05/26 00:33:05;;;;;;;7.95;4.70;;;;;;;11.64;100.00;96365.94;1026128;28;20030;-73
2023/05/26 00:33:36;;;;;;;10.27;5.22;;;;;;;11.62;100.00;96368.03;1026276;28;20082;-73
2023/05/26 00:34:07;;;;;;;11.18;5.53;;;;;;;11.56;100.00;96360.09;1022505;28;20099;-72
2023/05/26 00:34:37;;;;;;;10.25;5.00;;;;;;;11.63;100.00;96364.34;1031170;28;20018;-72
2023/05/26 00:35:08;;;;;;;10.98;5.13;;;;;;;11.67;100.00;96365.41;1030372;28;20772;-72
2023/05/26 00:35:38;;;;;;;10.25;5.20;;;;;;;11.49;100.00;96346.38;1030487;28;20044;-72
2023/05/26 00:36:09;;;;;;;11.05;5.00;;;;;;;11.67;100.00;96368.88;1026163;28;20034;-72
2023/05/26 00:36:39;;;;;;;7.35;4.57;;;;;;;11.69;100.00;96366.75;1026162;28;20051;-73
2023/05/26 00:37:10;;;;;;;10.63;5.00;;;;;;;11.54;100.00;96343.81;1030299;28;20564;-72
2023/05/26 00:37:40;;;;;;;9.07;4.95;;;;;;;11.64;100.00;96361.50;1034335;28;20026;-73
2023/05/26 00:38:11;;;;;;;9.80;5.15;;;;;;;11.68;100.00;96362.56;1032698;28;20033;-73
2023/05/26 00:38:41;;;;;;;10.50;5.50;;;;;;;11.70;100.00;96371.00;1026069;28;20038;-73
2023/05/26 00:39:12;;;;;;;9.95;5.28;;;;;;;11.69;100.00;96363.34;1026200;28;20019;-72
2023/05/26 00:39:42;;;;;;;6.15;4.53;;;;;;;11.68;100.00;96361.78;1022179;28;20035;-72
2023/05/26 00:40:13;;;;;;;7.90;4.93;;;;;;;11.66;100.00;96358.59;1030410;28;20031;-72
2023/05/26 00:40:43;;;;;;;8.35;5.13;;;;;;;11.67;100.00;96366.25;1029950;28;20018;-72
2023/05/26 00:41:14;;;;;;;10.35;5.07;;;;;;;11.67;100.00;96360.97;1029528;28;20496;-73
2023/05/26 00:41:44;;;;;;;7.22;4.75;;;;;;;11.68;100.00;96365.19;1025674;28;20786;-72
2023/05/26 00:42:15;;;;;;;7.95;4.68;;;;;;;11.70;100.00;96364.91;1026167;28;20030;-72
2023/05/26 00:42:45;;;;;;;8.55;5.13;;;;;;;11.72;100.00;96360.22;1034114;28;20021;-72
2023/05/26 00:43:16;;;;;;;8.77;5.20;;;;;;;11.78;100.00;96362.63;1034306;28;20029;-73
2023/05/26 00:43:46;;;;;;;8.02;4.85;;;;;;;11.77;100.00;96360.25;1030270;28;20034;-72
2023/05/26 00:44:16;;;;;;;9.02;4.53;;;;;;;11.82;100.00;96359.47;1030240;28;20034;-72
2023/05/26 00:44:47;;;;;;;8.30;4.80;;;;;;;11.85;100.00;96361.63;1022058;28;20033;-73
2023/05/26 00:45:17;;;;;;;7.93;4.97;;;;;;;11.82;100.00;96357.63;1022397;28;20031;-72
2023/05/26 00:45:48;;;;;;;8.05;4.60;;;;;;;11.91;100.00;96352.72;1030254;28;20041;-73
2023/05/26 00:46:18;;;;;;;10.80;5.10;;;;;;;11.91;100.00;96356.16;1030371;28;20096;-72
2023/05/26 00:46:49;;;;;;;7.35;5.05;;;;;;;11.93;100.00;96359.28;1038077;28;20032;-71
2023/05/26 00:47:19;;;;;;;8.10;5.18;;;;;;;11.93;100.00;96348.78;1038294;28;20100;-72
2023/05/26 00:47:51;;;;;;;9.40;4.43;;;;;;;11.96;100.00;96352.75;1030124;28;20030;-72
2023/05/26 00:48:21;;;;;;;8.50;4.80;;;;;;;12.02;100.00;96352.50;1033926;28;20488;-72
2023/05/26 00:48:51;;;;;;;8.40;5.00;;;;;;;12.00;100.00;96349.34;1026261;28;20032;-71
2023/05/26 00:49:22;;;;;;;7.35;5.20;;;;;;;11.95;100.00;96340.66;1026521;28;20275;-72
2023/05/26 00:49:52;;;;;;;9.95;5.45;;;;;;;11.95;100.00;96346.69;1026035;28;20038;-72
2023/05/26 00:50:23;;;;;;;8.27;5.05;;;;;;;11.98;100.00;96356.69;1030453;28;20022;-71
2023/05/26 00:50:53;;;;;;;11.07;4.45;;;;;;;11.96;100.00;96353.53;1038356;28;20041;-73
2023/05/26 00:51:24;;;;;;;8.05;4.70;;;;;;;11.90;100.00;96344.03;1021301;28;20035;-72
2023/05/26 00:51:54;;;;;;;9.25;5.00;;;;;;;11.96;100.00;96350.09;1026230;28;20496;-73
2023/05/26 00:52:25;;;;;;;9.90;5.07;;;;;;;11.94;100.00;96350.38;1026271;28;20405;-73
2023/05/26 00:52:55;;;;;;;7.32;4.43;;;;;;;11.92;100.00;96344.56;1026285;28;20041;-72
2023/05/26 00:53:26;;;;;;;8.02;4.95;;;;;;;11.91;100.00;96350.88;1021949;28;20818;-72
2023/05/26 00:53:56;;;;;;;6.45;4.75;;;;;;;11.85;100.00;96346.63;1030174;28;20026;-72
2023/05/26 00:54:27;;;;;;;7.28;5.13;;;;;;;11.77;100.00;96344.47;1026243;28;20030;-73
2023/05/26 00:54:57;;;;;;;8.18;4.55;;;;;;;11.79;100.00;96337.09;1026040;28;20031;-73
2023/05/26 00:55:28;;;;;;;6.90;4.50;;;;;;;11.75;100.00;96346.56;1030016;28;20371;-72
2023/05/26 00:55:59;;;;;;;7.82;4.75;;;;;;;11.75;100.00;96351.81;1030277;28;20033;-72
2023/05/26 00:56:31;;;;;;;7.82;4.97;;;;;;;11.72;100.00;96352.31;1018215;29;20298;-73
2023/05/26 00:57:02;;;;;;;8.32;5.43;;;;;;;11.66;100.00;96350.69;1021619;29;20106;-72
2023/05/26 00:57:33;;;;;;;7.95;4.93;;;;;;;11.66;100.00;96353.34;1022062;28;20027;-72
2023/05/26 00:58:03;;;;;;;10.50;5.18;;;;;;;11.60;100.00;96349.09;1018412;29;20084;-72
2023/05/26 00:58:33;;;;;;;12.98;4.78;;;;;;;11.61;100.00;96355.94;1020307;28;20053;-72
2023/05/26 00:59:04;;;;;;;9.88;5.28;;;;;;;11.54;100.00;96346.44;1022231;29;20027;-72
2023/05/26 00:59:34;;;;;;;7.95;4.85;;;;;;;11.50;100.00;96349.81;1021987;29;20027;-72
2023/05/26 01:00:08;;;;;;;14.80;5.20;;;;;;;11.53;100.00;96351.94;1022068;28;20020;-72
2023/05/26 01:00:39;;;;;;;7.70;4.82;;;;;;;11.46;100.00;96346.88;1030164;28;20039;-72
2023/05/26 01:01:09;;;;;;;8.45;4.85;;;;;;;11.43;100.00;96350.03;1025562;28;20886;-71
2023/05/26 01:01:40;;;;;;;8.40;5.05;;;;;;;11.41;100.00;96352.13;1025972;28;20093;-72
2023/05/26 01:02:12;;;;;;;9.27;5.00;;;;;;;11.38;100.00;96350.00;1022032;28;20026;-73
2023/05/26 01:02:44;;;;;;;10.13;5.13;;;;;;;11.35;100.00;96354.97;1022559;28;20038;-72
2023/05/26 01:03:16;;;;;;;9.52;5.30;;;;;;;11.31;100.00;96349.44;1026184;28;20031;-72
2023/05/26 01:03:47;;;;;;;9.90;5.63;;;;;;;11.31;100.00;96349.44;1018543;29;20024;-72
2023/05/26 01:04:17;;;;;;;8.45;5.13;;;;;;;11.31;100.00;96352.06;1018208;29;20036;-72
2023/05/26 01:04:52;;;;;;;7.32;4.75;;;;;;;11.31;100.00;96352.84;1022102;29;20526;-72
2023/05/26 01:05:23;;;;;;;11.38;5.82;;;;;;;11.35;100.00;96355.75;1023008;28;20122;-72
2023/05/26 01:05:54;;;;;;;11.00;5.15;;;;;;;11.36;100.00;96359.97;1026813;28;20023;-73
2023/05/26 01:06:24;;;;;;;6.85;5.00;;;;;;;11.36;100.00;96352.06;1027025;28;20037;-72
2023/05/26 01:06:55;;;;;;;10.10;5.35;;;;;;;11.35;100.00;96350.50;1030462;28;20309;-72
2023/05/26 01:07:26;;;;;;;8.73;5.28;;;;;;;11.32;100.00;96348.38;1034539;28;20030;-72
2023/05/26 01:07:56;;;;;;;18.52;5.65;;;;;;;11.27;100.00;96345.72;1038189;28;20071;-72
2023/05/26 01:08:27;;;;;;;8.80;4.75;;;;;;;11.29;100.00;96354.13;1034303;28;20068;-72
2023/05/26 01:08:57;;;;;;;10.70;5.10;;;;;;;11.27;100.00;96351.78;1034025;28;20435;-72
2023/05/26 01:09:28;;;;;;;13.90;4.85;;;;;;;11.26;100.00;96354.63;1030382;28;20034;-73
2023/05/26 01:09:58;;;;;;;12.32;5.40;;;;;;;11.22;100.00;96353.56;1026066;28;20033;-72
2023/05/26 01:10:31;;;;;;;9.75;6.10;;;;;;;11.21;100.00;96351.97;1034094;28;20648;-72
2023/05/26 01:11:26;;;;;;;10.93;5.53;;;;;;;11.22;100.00;96351.72;1029504;28;20036;-71
2023/05/26 01:12:01;;;;;;;8.50;4.97;;;;;;;11.21;100.00;96351.97;1033619;28;20102;-72
2023/05/26 01:12:38;;;;;;;7.82;5.22;;;;;;;11.22;100.00;96354.34;1034316;28;20497;-72
2023/05/26 01:13:12;;;;;;;11.32;5.68;;;;;;;11.19;100.00;96346.19;1038390;28;20558;-72
2023/05/26 01:13:48;;;;;;;7.15;5.15;;;;;;;11.22;100.00;96353.56;1034943;28;20658;-72
2023/05/26 01:14:29;;;;;;;9.07;5.43;;;;;;;11.12;100.00;96342.97;1027869;28;20340;-72
2023/05/26 01:15:00;;;;;;;7.85;5.05;;;;;;;11.16;100.00;96350.09;1030259;28;20606;-72
2023/05/26 01:15:36;;;;;;;8.90;5.43;;;;;;;11.14;100.00;96351.41;1031545;28;20758;-72
2023/05/26 01:16:08;;;;;;;8.20;5.47;;;;;;;11.09;100.00;96352.91;1032401;28;20276;-73
2023/05/26 01:16:42;;;;;;;14.50;6.38;;;;;;;11.06;100.00;96348.16;1021246;29;20267;-72
2023/05/26 01:17:20;;;;;;;7.45;4.95;;;;;;;11.05;100.00;96354.47;1019904;28;20275;-71
2023/05/26 01:18:09;;;;;;;8.43;5.05;;;;;;;11.06;100.00;96355.25;1023111;28;20275;-72
2023/05/26 01:18:42;;;;;;;9.20;5.70;;;;;;;10.98;100.00;96342.59;1022171;29;20526;-72
2023/05/26 01:19:22;;;;;;;9.63;5.70;;;;;;;11.01;100.00;96348.13;1021996;28;20310;-72
2023/05/26 01:20:01;;;;;;;8.50;5.60;;;;;;;11.01;100.00;96347.34;1026179;28;20599;-72
2023/05/26 01:20:38;;;;;;;8.02;5.20;;;;;;;11.01;100.00;96356.00;1025635;28;20305;-72
2023/05/26 01:21:10;;;;;;;10.05;5.30;;;;;;;10.99;100.00;96355.47;1029020;28;20444;-72
2023/05/26 01:21:42;;;;;;;8.90;4.97;;;;;;;10.99;100.00;96350.22;1038236;28;20263;-72
2023/05/26 01:22:37;;;;;;;8.35;4.78;;;;;;;10.99;100.00;96352.84;1032484;28;20274;-73
2023/05/26 01:23:32;;;;;;;10.55;5.55;;;;;;;11.02;100.00;96354.97;1018268;28;20791;-72
2023/05/26 01:24:20;;;;;;;11.35;5.60;;;;;;;11.02;100.00;96357.59;1032732;28;20269;-72
2023/05/26 01:25:09;;;;;;;11.00;6.05;;;;;;;11.00;100.00;96351.00;1031569;28;20296;-73
2023/05/26 01:26:02;;;;;;;11.90;5.88;;;;;;;10.99;100.00;96358.09;1032872;28;20269;-74
2023/05/26 01:26:42;;;;;;;9.15;5.28;;;;;;;10.95;100.00;96348.34;1031326;28;20273;-73
2023/05/26 01:27:18;;;;;;;8.45;5.03;;;;;;;10.94;100.00;96354.66;1030211;28;20262;-72
2023/05/26 01:28:07;;;;;;;11.38;5.65;;;;;;;10.93;100.00;96355.66;1035203;28;20034;-72
2023/05/26 01:28:38;;;;;;;9.32;5.47;;;;;;;10.84;100.00;96348.25;1034165;28;20321;-73
2023/05/26 01:29:11;;;;;;;11.30;5.38;;;;;;;10.85;100.00;96359.53;1030213;28;20265;-74
2023/05/26 01:29:41;;;;;;;9.90;5.90;;;;;;;10.86;100.00;96361.13;1030037;28;20145;-73
2023/05/26 01:30:12;;;;;;;11.52;5.80;;;;;;;10.86;100.00;96353.25;1026215;28;20274;-72
2023/05/26 01:30:43;;;;;;;10.48;5.22;;;;;;;10.83;100.00;96362.44;1022008;29;20027;-72
2023/05/26 01:31:13;;;;;;;10.38;5.75;;;;;;;10.80;100.00;96351.63;1021777;28;20763;-73
2023/05/26 01:31:44;;;;;;;10.93;6.13;;;;;;;10.77;100.00;96358.16;1022219;28;20103;-72
2023/05/26 01:32:15;;;;;;;9.25;5.50;;;;;;;10.73;100.00;96354.47;1026274;28;20581;-72
2023/05/26 01:32:47;;;;;;;9.35;5.68;;;;;;;10.73;100.00;96356.25;1029979;28;20018;-72
2023/05/26 01:33:17;;;;;;;9.07;5.35;;;;;;;10.72;100.00;96358.09;1026201;28;20296;-72
2023/05/26 01:33:48;;;;;;;7.03;5.03;;;;;;;10.70;100.00;96356.78;1010271;29;20296;-72
2023/05/26 01:34:18;;;;;;;12.18;5.65;;;;;;;10.67;100.00;96362.53;1022120;29;20031;-72
2023/05/26 01:34:49;;;;;;;11.48;5.43;;;;;;;10.65;100.00;96351.47;1024608;28;20351;-72
2023/05/26 01:35:19;;;;;;;10.90;6.10;;;;;;;10.64;100.00;96358.56;1026291;28;20033;-72
2023/05/26 01:35:50;;;;;;;7.93;5.15;;;;;;;10.61;100.00;96359.06;1029979;28;20018;-73
2023/05/26 01:36:20;;;;;;;8.57;5.32;;;;;;;10.59;100.00;96359.28;1027407;28;20310;-73
2023/05/26 01:36:51;;;;;;;9.35;5.10;;;;;;;10.47;100.00;96345.53;1030020;28;20030;-72
2023/05/26 01:37:21;;;;;;;8.25;5.00;;;;;;;10.47;100.00;96348.16;1022100;29;20493;-73
2023/05/26 01:37:52;;;;;;;10.88;6.47;;;;;;;10.51;100.00;96358.94;1030022;28;20081;-72
2023/05/26 01:38:22;;;;;;;8.25;4.85;;;;;;;10.51;100.00;96354.50;1030102;28;20041;-73
2023/05/26 01:38:52;;;;;;;8.75;5.80;;;;;;;10.50;100.00;96366.03;1030864;28;20524;-72
2023/05/26 01:39:23;;;;;;;9.13;5.15;;;;;;;10.44;100.00;96356.50;1030911;28;20043;-72
2023/05/26 01:39:53;;;;;;;10.82;5.72;;;;;;;10.47;100.00;96357.84;1024376;28;20042;-73
2023/05/26 01:40:24;;;;;;;12.13;5.72;;;;;;;10.42;100.00;96349.91;1022817;28;20031;-73
2023/05/26 01:41:16;;;;;;;13.45;6.13;;;;;;;10.39;100.00;96351.19;1022870;29;20082;-72
2023/05/26 01:41:53;;;;;;;10.77;6.00;;;;;;;10.42;100.00;96361.19;1026966;28;20027;-73
2023/05/26 01:42:25;;;;;;;9.68;5.63;;;;;;;10.41;100.00;96369.34;1031028;28;20344;-73
2023/05/26 01:43:02;;;;;;;9.32;5.70;;;;;;;10.38;100.00;96360.91;1018943;29;20311;-73
2023/05/26 01:43:42;;;;;;;10.27;5.25;;;;;;;10.31;100.00;96354.25;1022707;29;20277;-73
2023/05/26 01:44:20;;;;;;;8.68;6.25;;;;;;;10.38;100.00;96365.34;1031088;28;20280;-72
2023/05/26 01:44:55;;;;;;;10.13;6.30;;;;;;;10.35;100.00;96361.38;1026913;28;20089;-72
2023/05/26 01:45:26;;;;;;;13.38;6.03;;;;;;;10.33;100.00;96360.84;1026941;28;20265;-73
2023/05/26 01:46:02;;;;;;;7.55;5.18;;;;;;;10.25;100.00;96349.97;1022973;29;20271;-73
2023/05/26 01:46:38;;;;;;;16.05;5.70;;;;;;;10.35;100.00;96365.84;1032109;28;20355;-72
2023/05/26 01:47:08;;;;;;;8.05;5.68;;;;;;;10.35;100.00;96365.84;1039248;28;20826;-72
2023/05/26 01:47:40;;;;;;;10.50;5.70;;;;;;;10.34;100.00;96364.28;1022688;28;20278;-73
2023/05/26 01:48:10;;;;;;;15.85;6.80;;;;;;;10.29;100.00;96357.13;1015799;29;20546;-72
2023/05/26 01:48:40;;;;;;;11.73;6.00;;;;;;;10.33;100.00;96363.47;1030834;28;20300;-72
2023/05/26 01:49:11;;;;;;;8.73;5.90;;;;;;;10.28;100.00;96352.13;1035111;28;20408;-72
2023/05/26 01:49:43;;;;;;;8.98;5.85;;;;;;;10.26;100.00;96351.56;1022817;28;20031;-72
2023/05/26 01:50:14;;;;;;;10.70;5.72;;;;;;;10.27;100.00;96363.66;1030768;28;20029;-72
2023/05/26 01:50:47;;;;;;;12.05;6.30;;;;;;;10.29;100.00;96367.59;1026950;28;20759;-72
2023/05/26 01:51:17;;;;;;;9.07;5.50;;;;;;;10.28;100.00;96375.72;1026154;28;20479;-72
2023/05/26 01:52:16;;;;;;;9.38;5.53;;;;;;;9.97;100.00;96325.53;1021368;29;21568;-72
2023/05/26 01:52:46;;;;;;;9.85;6.00;;;;;;;10.23;100.00;96367.75;1029680;28;20068;-73
2023/05/26 01:53:17;;;;;;;7.78;5.35;;;;;;;10.20;100.00;96363.03;1030492;28;20254;-72
2023/05/26 01:53:48;;;;;;;10.68;6.20;;;;;;;10.21;100.00;96370.63;1034811;28;20280;-72
2023/05/26 01:54:21;;;;;;;11.65;6.28;;;;;;;10.21;100.00;96375.88;1022860;29;20273;-73
2023/05/26 01:54:55;;;;;;;10.18;5.68;;;;;;;10.20;100.00;96374.31;1022843;29;20353;-72
2023/05/26 01:55:26;;;;;;;9.88;5.88;;;;;;;10.17;100.00;96366.13;1024766;28;20338;-72
2023/05/26 01:55:58;;;;;;;8.63;6.28;;;;;;;10.17;100.00;96374.00;1035658;28;20261;-72
2023/05/26 01:56:30;;;;;;;10.60;5.68;;;;;;;10.14;100.00;96368.19;1035089;28;20077;-73
2023/05/26 01:57:01;;;;;;;10.40;5.60;;;;;;;10.11;100.00;96371.31;1022746;28;20287;-73
2023/05/26 01:57:32;;;;;;;13.65;5.47;;;;;;;10.06;100.00;96363.41;1030843;28;20265;-73
2023/05/26 01:58:02;;;;;;;9.23;5.35;;;;;;;10.10;100.00;96374.97;1026675;28;20055;-73
2023/05/26 01:58:33;;;;;;;10.43;6.05;;;;;;;10.07;100.00;96375.47;1022676;29;20440;-73
2023/05/26 01:59:03;;;;;;;9.13;5.38;;;;;;;10.07;100.00;96378.09;1030669;28;20026;-72
2023/05/26 01:59:34;;;;;;;13.02;6.43;;;;;;;10.06;100.00;96375.69;1022842;29;20023;-73
2023/05/26 02:00:06;;;;;;;10.50;5.60;;;;;;;10.07;100.00;96380.72;1014678;29;20020;-73
2023/05/26 02:00:36;;;;;;;10.13;5.93;;;;;;;10.05;100.00;96372.28;1022768;29;20740;-73
2023/05/26 02:01:07;;;;;;;12.13;5.70;;;;;;;10.06;100.00;96376.50;1024113;28;20305;-72
2023/05/26 02:01:37;;;;;;;8.13;5.80;;;;;;;10.04;100.00;96378.56;1022603;28;20121;-72
2023/05/26 02:02:08;;;;;;;14.02;5.80;;;;;;;10.05;100.00;96376.72;1022626;28;20118;-73
2023/05/26 02:02:38;;;;;;;10.75;5.38;;;;;;;10.03;100.00;96381.44;1022956;29;20019;-73
2023/05/26 02:03:09;;;;;;;9.48;5.57;;;;;;;10.01;100.00;96375.63;1031014;28;20077;-73
2023/05/26 02:03:42;;;;;;;8.93;5.35;;;;;;;9.95;100.00;96364.28;1034659;28;20022;-73
2023/05/26 02:04:12;;;;;;;10.38;5.85;;;;;;;9.95;100.00;96377.38;1031214;28;20015;-72
2023/05/26 02:04:43;;;;;;;12.40;5.80;;;;;;;9.98;100.00;96381.38;1022850;29;20350;-73
2023/05/26 02:05:13;;;;;;;12.38;6.05;;;;;;;9.96;100.00;96378.19;1022346;29;20474;-72
2023/05/26 02:05:44;;;;;;;10.13;5.55;;;;;;;9.94;100.00;96375.03;1023378;28;20034;-72
2023/05/26 02:06:14;;;;;;;9.02;5.32;;;;;;;9.91;100.00;96371.06;1030735;28;20043;-73
2023/05/26 02:06:45;;;;;;;9.32;6.18;;;;;;;9.92;100.00;96380.50;1034895;28;20071;-72
2023/05/26 02:07:15;;;;;;;11.18;5.63;;;;;;;9.90;100.00;96374.72;1026681;28;20504;-72
2023/05/26 02:07:46;;;;;;;14.65;6.40;;;;;;;9.90;100.00;96379.97;1022821;29;20547;-72
2023/05/26 02:08:16;;;;;;;10.73;4.93;;;;;;;9.83;100.00;96371.47;1018904;29;20028;-72
2023/05/26 02:08:47;;;;;;;10.20;6.10;;;;;;;9.87;100.00;96386.47;1026740;28;20126;-72
2023/05/26 02:09:18;;;;;;;10.13;5.97;;;;;;;9.87;100.00;96375.19;1035214;28;20368;-72
2023/05/26 02:09:48;;;;;;;10.02;5.63;;;;;;;9.82;100.00;96372.50;1030639;28;20133;-73
2023/05/26 02:10:19;;;;;;;10.90;5.63;;;;;;;9.83;100.00;96380.13;1025576;28;20038;-72
2023/05/26 02:10:49;;;;;;;8.00;5.03;;;;;;;9.76;100.00;96369.03;1022779;29;20035;-72
2023/05/26 02:11:19;;;;;;;11.95;5.32;;;;;;;9.83;100.00;96379.34;1018197;28;20103;-72
2023/05/26 02:11:50;;;;;;;9.57;5.80;;;;;;;9.83;100.00;96384.59;1026828;28;20035;-72
2023/05/26 02:12:20;;;;;;;9.45;5.80;;;;;;;9.81;100.00;96386.66;1030599;28;20403;-72
2023/05/26 02:12:51;;;;;;;7.95;5.68;;;;;;;9.80;100.00;96383.22;1026742;28;20182;-72
2023/05/26 02:13:21;;;;;;;8.80;5.75;;;;;;;9.79;100.00;96384.28;1026801;28;20030;-71
2023/05/26 02:13:52;;;;;;;10.32;5.47;;;;;;;9.79;100.00;96380.84;1030479;28;20031;-72
2023/05/26 02:14:22;;;;;;;10.40;6.07;;;;;;;9.83;100.00;96381.97;1030893;28;20092;-72
2023/05/26 02:14:53;;;;;;;9.88;5.40;;;;;;;9.80;100.00;96377.19;1026681;28;20480;-72
2023/05/26 02:15:23;;;;;;;9.52;5.25;;;;;;;9.74;100.00;96367.69;1018608;29;20027;-72
2023/05/26 02:15:54;;;;;;;12.25;5.55;;;;;;;9.83;100.00;96387.22;1022813;29;20118;-73
2023/05/26 02:16:25;;;;;;;12.18;6.13;;;;;;;9.78;100.00;96374.00;1026721;28;20039;-72
2023/05/26 02:16:55;;;;;;;12.73;6.30;;;;;;;9.81;100.00;96381.41;1022767;29;20114;-72
2023/05/26 02:17:26;;;;;;;10.18;5.18;;;;;;;9.80;100.00;96379.81;1022690;28;20275;-72
2023/05/26 02:17:57;;;;;;;10.25;5.90;;;;;;;9.82;100.00;96377.72;1022604;28;20039;-73
2023/05/26 02:18:28;;;;;;;13.63;5.53;;;;;;;9.76;100.00;96370.84;1027339;28;20143;-72
2023/05/26 02:18:58;;;;;;;10.75;5.75;;;;;;;9.81;100.00;96376.16;1034762;28;20762;-73
2023/05/26 02:19:29;;;;;;;9.15;5.22;;;;;;;9.82;100.00;96373.28;1030461;28;20038;-72
2023/05/26 02:20:00;;;;;;;14.65;5.85;;;;;;;9.87;100.00;96378.59;1030816;28;20056;-72
2023/05/26 02:20:31;;;;;;;10.77;5.63;;;;;;;9.87;100.00;96376.00;1023156;28;20259;-73
2023/05/26 02:21:01;;;;;;;10.80;6.28;;;;;;;9.92;100.00;96377.88;1023265;28;20724;-72
2023/05/26 02:21:32;;;;;;;8.60;5.82;;;;;;;9.87;100.00;96369.97;1027021;28;20164;-72
2023/05/26 02:22:02;;;;;;;11.40;6.55;;;;;;;9.88;100.00;96376.78;1023530;28;20042;-72
2023/05/26 02:22:33;;;;;;;9.68;6.15;;;;;;;9.88;100.00;96371.53;1029431;28;20124;-72
2023/05/26 02:23:03;;;;;;;12.50;6.30;;;;;;;9.88;100.00;96372.31;1039109;28;20033;-71
2023/05/26 02:23:34;;;;;;;12.15;5.78;;;;;;;9.88;100.00;96376.78;1039763;28;20048;-72
2023/05/26 02:24:05;;;;;;;9.65;5.97;;;;;;;9.89;100.00;96370.50;1031529;28;20038;-72
2023/05/26 02:24:35;;;;;;;7.80;5.97;;;;;;;9.87;100.00;96376.00;1023375;29;20031;-73
2023/05/26 02:25:06;;;;;;;12.10;5.97;;;;;;;9.84;100.00;96365.19;1023185;29;20031;-73
2023/05/26 02:25:36;;;;;;;13.73;5.95;;;;;;;9.90;100.00;96374.72;1023395;28;20094;-72
2023/05/26 02:26:07;;;;;;;8.30;5.53;;;;;;;9.89;100.00;96370.50;1027247;28;20023;-72
2023/05/26 02:26:37;;;;;;;15.85;5.63;;;;;;;9.89;100.00;96373.09;1027423;28;20034;-72
2023/05/26 02:27:08;;;;;;;11.70;5.65;;;;;;;9.87;100.00;96375.19;1027465;28;20037;-72
2023/05/26 02:27:38;;;;;;;10.93;6.05;;;;;;;9.88;100.00;96374.94;1027786;28;20721;-72
2023/05/26 02:28:09;;;;;;;7.57;5.38;;;;;;;9.83;100.00;96368.84;1023429;28;20035;-72
2023/05/26 02:28:40;;;;;;;8.60;5.45;;;;;;;9.88;100.00;96376.78;1019702;29;20405;-71